PDT,Max TemperatureF,Mean TemperatureF,Min TemperatureF,Max Dew PointF,MeanDew PointF,Min DewpointF,Max Humidity, Mean Humidity, Min Humidity, Max Sea Level PressureIn, Mean Sea Level PressureIn, Min Sea Level PressureIn, Max VisibilityMiles, Mean VisibilityMiles, Min VisibilityMiles, Max Wind SpeedMPH, Mean Wind SpeedMPH, Max Gust SpeedMPH,PrecipitationIn, CloudCover, Events, WindDirDegrees
2013-3-1,59,57,54,49,48,46,77,72,67,30.30,30.25,30.22,10,10,6,24,15,35,0.24,8,Rain,161
2013-3-2,58,50,42,48,44,37,83,75,67,30.23,30.10,30.00,10,8,2,21,9,30,0.28,8,Rain,184
2013-3-3,52,44,35,36,34,31,82,67,52,30.34,30.26,30.19,10,10,10,12,3,20,0.00,4,,221
2013-3-4,57,44,30,35,30,27,89,62,35,30.33,30.19,29.99,10,10,10,15,5,30,0.00,0,,19
2013-3-5,50,44,38,39,30,25,58,49,39,29.98,29.86,29.78,10,10,10,20,10,26,T,6,Rain,23
2013-3-6,45,42,39,41,37,27,100,85,70,29.91,29.75,29.65,10,9,5,14,5,20,0.33,8,Rain,303
2013-3-7,47,42,37,43,39,29,100,85,70,30.13,30.06,29.88,10,8,0,9,2,12,0.08,7,Fog-Rain,139
2013-3-8,51,42,33,40,36,28,100,81,61,30.27,30.14,30.09,10,4,0,10,2,15,0.00,5,Fog,316
2013-3-9,52,41,29,40,34,27,100,80,59,30.51,30.40,30.27,10,8,1,10,3,13,0.00,1,,171
2013-3-10,45,43,40,41,39,37,93,88,82,30.51,30.46,30.42,10,10,3,12,6,14,0.00,7,,164
2013-3-11,51,44,37,42,38,36,100,81,61,30.46,30.37,30.15,10,9,5,12,3,15,0.27,6,Rain,137
2013-3-12,53,47,41,48,46,40,100,89,77,30.13,30.04,29.98,10,8,2,26,14,35,0.55,8,Rain,149
2013-3-13,56,53,50,49,47,46,93,85,77,30.17,30.11,30.06,10,9,4,22,10,29,0.52,8,Rain,157
2013-3-14,55,51,47,48,46,44,100,86,72,30.14,30.05,30.00,10,7,2,18,8,24,0.17,7,Rain,140
2013-3-15,56,50,43,48,46,42,100,86,72,30.21,30.17,30.11,10,10,6,15,5,25,0.18,7,Rain,173
2013-3-16,48,44,39,46,41,31,100,79,58,30.12,29.96,29.86,10,9,3,16,6,22,0.22,8,Rain,179
2013-3-17,48,44,40,35,32,30,79,66,53,30.16,30.11,29.96,10,10,10,14,6,18,T,5,Rain,188
2013-3-18,50,42,33,37,34,26,92,67,42,30.27,30.15,30.04,10,10,7,22,8,31,0.12,5,Rain,175
2013-3-19,54,43,31,39,32,27,89,68,46,30.26,29.99,29.58,10,10,9,26,7,35,0.03,3,Rain,30
2013-3-20,53,47,40,48,39,29,93,75,57,29.97,29.55,29.29,10,10,3,32,15,45,0.13,6,Rain,174
2013-3-21,47,41,35,36,32,29,85,71,57,30.21,30.13,29.99,10,10,10,14,6,20,0.01,4,Rain,192
2013-3-22,45,38,30,35,30,26,89,69,49,30.40,30.29,30.19,10,10,10,14,5,20,0.03,5,,275
2013-3-23,50,40,29,33,28,25,92,66,39,30.43,30.39,30.34,10,10,10,9,1,14,0.00,3,,221
2013-3-24,55,43,31,33,29,26,92,65,38,30.34,30.26,30.17,10,10,10,10,2,15,0.00,4,,358
2013-3-25,59,47,35,36,34,31,85,62,39,30.16,30.07,29.99,10,10,10,10,2,14,0.00,3,,321
2013-3-26,58,46,33,38,35,32,96,68,40,30.05,30.02,30.00,10,10,8,8,2,12,0.00,3,,254
2013-3-27,61,48,34,42,39,33,100,73,46,30.03,29.99,29.97,10,10,5,9,2,26,0.00,4,,344
2013-3-28,60,49,37,45,41,36,96,74,51,30.17,30.09,30.02,10,10,6,10,3,14,0.00,3,,189
2013-3-29,60,50,40,45,42,39,96,74,51,30.29,30.25,30.18,10,10,8,8,2,13,0.00,1,,274
2013-3-30,62,49,35,45,40,34,100,78,55,30.30,30.25,30.10,10,6,0,13,3,16,0.00,1,Fog,310
2013-3-31,64,50,35,44,40,35,100,73,46,30.11,30.04,29.94,10,8,0,12,4,14,0.00,1,Fog,323